sensor_id;sensor_type;location;lat;lon;timestamp;P1;durP1;ratioP1;P2;durP2;ratioP2
24663;SDS011;12791;50.992;13.788;2022-12-16T04:01:26;85.03;;;45.92;;
24663;SDS011;12791;50.992;13.788;2022-12-16T04:03:53;91.32;;;47.13;;
24663;SDS011;12791;50.992;13.788;2022-12-16T04:06:20;88.78;;;45.80;;
24663;SDS011;12791;50.992;13.788;2022-12-16T04:08:46;86.10;;;45.50;;
24663;SDS011;12791;50.992;13.788;2022-12-16T04:11:14;84.75;;;44.95;;
24663;SDS011;12791;50.992;13.788;2022-12-16T04:13:58;88.05;;;45.80;;
24663;SDS011;12791;50.992;13.788;2022-12-16T04:16:44;85.28;;;45.55;;
24663;SDS011;12791;50.992;13.788;2022-12-16T04:19:29;86.95;;;44.50;;
24663;SDS011;12791;50.992;13.788;2022-12-16T04:22:17;77.68;;;40.63;;
24663;SDS011;12791;50.992;13.788;2022-12-16T04:25:18;75.60;;;40.80;;
24663;SDS011;12791;50.992;13.788;2022-12-16T04:27:46;74.97;;;39.45;;
24663;SDS011;12791;50.992;13.788;2022-12-16T04:30:13;74.28;;;39.65;;
24663;SDS011;12791;50.992;13.788;2022-12-16T04:32:45;76.40;;;40.63;;
24663;SDS011;12791;50.992;13.788;2022-12-16T04:35:31;75.70;;;39.28;;
24663;SDS011;12791;50.992;13.788;2022-12-16T04:38:15;76.45;;;38.72;;
24663;SDS011;12791;50.992;13.788;2022-12-16T04:41:00;71.63;;;39.90;;
24663;SDS011;12791;50.992;13.788;2022-12-16T04:43:45;69.65;;;37.75;;
24663;SDS011;12791;50.992;13.788;2022-12-16T04:46:30;73.90;;;38.92;;
24663;SDS011;12791;50.992;13.788;2022-12-16T04:49:15;71.15;;;37.95;;
24663;SDS011;12791;50.992;13.788;2022-12-16T04:51:59;69.70;;;38.30;;
24663;SDS011;12791;50.992;13.788;2022-12-16T04:54:44;70.43;;;37.70;;
24663;SDS011;12791;50.992;13.788;2022-12-16T04:57:28;71.90;;;38.20;;
24663;SDS011;12791;50.992;13.788;2022-12-16T05:00:12;72.88;;;38.25;;
24663;SDS011;12791;50.992;13.788;2022-12-16T05:02:57;71.68;;;37.30;;
24663;SDS011;12791;50.992;13.788;2022-12-16T05:05:43;64.68;;;36.60;;
24663;SDS011;12791;50.992;13.788;2022-12-16T05:08:27;67.82;;;38.28;;
24663;SDS011;12791;50.992;13.788;2022-12-16T05:11:11;68.95;;;37.40;;
24663;SDS011;12791;50.992;13.788;2022-12-16T05:13:56;69.97;;;37.97;;
24663;SDS011;12791;50.992;13.788;2022-12-16T05:16:40;71.50;;;37.92;;
24663;SDS011;12791;50.992;13.788;2022-12-16T05:19:24;66.03;;;36.00;;
24663;SDS011;12791;50.992;13.788;2022-12-16T05:22:10;67.47;;;35.83;;
24663;SDS011;12791;50.992;13.788;2022-12-16T05:24:54;63.20;;;34.88;;
24663;SDS011;12791;50.992;13.788;2022-12-16T05:27:38;69.60;;;36.80;;
24663;SDS011;12791;50.992;13.788;2022-12-16T05:30:23;65.28;;;35.55;;
24663;SDS011;12791;50.992;13.788;2022-12-16T05:33:07;67.43;;;37.67;;
24663;SDS011;12791;50.992;13.788;2022-12-16T05:35:51;69.25;;;36.22;;
24663;SDS011;12791;50.992;13.788;2022-12-16T05:38:37;65.30;;;34.85;;
24663;SDS011;12791;50.992;13.788;2022-12-16T05:41:23;65.10;;;34.03;;
24663;SDS011;12791;50.992;13.788;2022-12-16T05:44:16;68.32;;;37.22;;
24663;SDS011;12791;50.992;13.788;2022-12-16T05:47:00;68.93;;;36.90;;
24663;SDS011;12791;50.992;13.788;2022-12-16T05:49:44;68.47;;;35.28;;
24663;SDS011;12791;50.992;13.788;2022-12-16T05:52:28;63.35;;;34.28;;
24663;SDS011;12791;50.992;13.788;2022-12-16T05:55:14;64.18;;;34.85;;
24663;SDS011;12791;50.992;13.788;2022-12-16T05:58:03;62.97;;;33.85;;
24663;SDS011;12791;50.992;13.788;2022-12-16T06:00:48;64.93;;;35.40;;
24663;SDS011;12791;50.992;13.788;2022-12-16T06:03:32;66.18;;;35.83;;
24663;SDS011;12791;50.992;13.788;2022-12-16T06:06:16;63.95;;;35.65;;
24663;SDS011;12791;50.992;13.788;2022-12-16T06:09:00;70.45;;;35.17;;
24663;SDS011;12791;50.992;13.788;2022-12-16T06:11:46;62.20;;;34.28;;
24663;SDS011;12791;50.992;13.788;2022-12-16T06:14:30;65.60;;;35.70;;
24663;SDS011;12791;50.992;13.788;2022-12-16T06:17:14;60.90;;;33.95;;
24663;SDS011;12791;50.992;13.788;2022-12-16T06:19:58;65.10;;;36.40;;
24663;SDS011;12791;50.992;13.788;2022-12-16T06:22:42;67.25;;;36.65;;
24663;SDS011;12791;50.992;13.788;2022-12-16T06:25:44;67.00;;;37.10;;
24663;SDS011;12791;50.992;13.788;2022-12-16T06:28:30;65.82;;;35.88;;
24663;SDS011;12791;50.992;13.788;2022-12-16T06:31:14;68.47;;;35.58;;
24663;SDS011;12791;50.992;13.788;2022-12-16T06:33:59;67.65;;;36.33;;
24663;SDS011;12791;50.992;13.788;2022-12-16T06:36:43;59.47;;;34.30;;
24663;SDS011;12791;50.992;13.788;2022-12-16T06:39:27;65.85;;;34.50;;
24663;SDS011;12791;50.992;13.788;2022-12-16T06:42:12;60.28;;;34.00;;
24663;SDS011;12791;50.992;13.788;2022-12-16T06:44:58;64.38;;;35.38;;
24663;SDS011;12791;50.992;13.788;2022-12-16T06:47:56;63.17;;;35.72;;
24663;SDS011;12791;50.992;13.788;2022-12-16T06:50:40;67.68;;;35.60;;
24663;SDS011;12791;50.992;13.788;2022-12-16T06:53:25;62.60;;;35.55;;
24663;SDS011;12791;50.992;13.788;2022-12-16T06:56:09;67.35;;;35.85;;
24663;SDS011;12791;50.992;13.788;2022-12-16T06:58:53;67.32;;;37.42;;
24663;SDS011;12791;50.992;13.788;2022-12-16T07:01:38;69.75;;;38.40;;
24663;SDS011;12791;50.992;13.788;2022-12-16T07:04:22;74.47;;;39.03;;
24663;SDS011;12791;50.992;13.788;2022-12-16T07:07:06;74.43;;;41.08;;
24663;SDS011;12791;50.992;13.788;2022-12-16T07:09:50;74.00;;;39.85;;
24663;SDS011;12791;50.992;13.788;2022-12-16T07:12:35;72.80;;;39.72;;
24663;SDS011;12791;50.992;13.788;2022-12-16T07:15:19;73.75;;;40.33;;
24663;SDS011;12791;50.992;13.788;2022-12-16T07:18:13;75.43;;;39.50;;
24663;SDS011;12791;50.992;13.788;2022-12-16T07:20:57;68.85;;;38.17;;
24663;SDS011;12791;50.992;13.788;2022-12-16T07:23:41;67.05;;;37.75;;
24663;SDS011;12791;50.992;13.788;2022-12-16T07:26:25;66.95;;;36.85;;
24663;SDS011;12791;50.992;13.788;2022-12-16T07:29:21;70.78;;;36.88;;
24663;SDS011;12791;50.992;13.788;2022-12-16T07:32:05;62.20;;;35.92;;
24663;SDS011;12791;50.992;13.788;2022-12-16T07:34:59;69.80;;;37.50;;
24663;SDS011;12791;50.992;13.788;2022-12-16T07:37:43;69.32;;;36.92;;
24663;SDS011;12791;50.992;13.788;2022-12-16T07:40:28;71.80;;;38.45;;
24663;SDS011;12791;50.992;13.788;2022-12-16T07:43:12;74.90;;;39.50;;
24663;SDS011;12791;50.992;13.788;2022-12-16T07:45:56;68.80;;;37.38;;
24663;SDS011;12791;50.992;13.788;2022-12-16T07:48:41;69.20;;;38.75;;
24663;SDS011;12791;50.992;13.788;2022-12-16T07:51:26;70.65;;;39.45;;
24663;SDS011;12791;50.992;13.788;2022-12-16T07:54:10;71.30;;;39.22;;
24663;SDS011;12791;50.992;13.788;2022-12-16T07:56:55;79.70;;;42.50;;
24663;SDS011;12791;50.992;13.788;2022-12-16T07:59:39;78.18;;;41.83;;
24663;SDS011;12791;50.992;13.788;2022-12-16T08:02:22;73.97;;;41.45;;
24663;SDS011;12791;50.992;13.788;2022-12-16T08:05:07;76.25;;;40.50;;
24663;SDS011;12791;50.992;13.788;2022-12-16T08:07:52;77.63;;;41.78;;
24663;SDS011;12791;50.992;13.788;2022-12-16T08:10:36;73.50;;;42.65;;
24663;SDS011;12791;50.992;13.788;2022-12-16T08:13:20;71.35;;;40.92;;
24663;SDS011;12791;50.992;13.788;2022-12-16T08:16:05;79.78;;;42.28;;
24663;SDS011;12791;50.992;13.788;2022-12-16T08:18:49;78.95;;;42.45;;
24663;SDS011;12791;50.992;13.788;2022-12-16T08:21:35;78.50;;;41.95;;
24663;SDS011;12791;50.992;13.788;2022-12-16T08:24:21;87.63;;;43.72;;
24663;SDS011;12791;50.992;13.788;2022-12-16T08:27:05;87.22;;;45.47;;
24663;SDS011;12791;50.992;13.788;2022-12-16T08:29:50;83.60;;;43.75;;
24663;SDS011;12791;50.992;13.788;2022-12-16T08:32:34;81.80;;;43.97;;
24663;SDS011;12791;50.992;13.788;2022-12-16T08:35:18;81.97;;;45.53;;
24663;SDS011;12791;50.992;13.788;2022-12-16T08:38:03;83.72;;;45.13;;
24663;SDS011;12791;50.992;13.788;2022-12-16T08:40:48;87.22;;;47.08;;
24663;SDS011;12791;50.992;13.788;2022-12-16T08:43:33;85.80;;;46.17;;
24663;SDS011;12791;50.992;13.788;2022-12-16T08:46:18;88.25;;;46.97;;
24663;SDS011;12791;50.992;13.788;2022-12-16T08:49:03;84.32;;;45.42;;
24663;SDS011;12791;50.992;13.788;2022-12-16T08:51:48;90.57;;;47.92;;
24663;SDS011;12791;50.992;13.788;2022-12-16T08:54:33;90.20;;;48.88;;
24663;SDS011;12791;50.992;13.788;2022-12-16T08:57:30;93.18;;;48.55;;
24663;SDS011;12791;50.992;13.788;2022-12-16T09:00:15;93.13;;;48.60;;
24663;SDS011;12791;50.992;13.788;2022-12-16T09:02:59;94.05;;;50.30;;
24663;SDS011;12791;50.992;13.788;2022-12-16T09:05:44;104.80;;;53.28;;
24663;SDS011;12791;50.992;13.788;2022-12-16T09:08:33;107.22;;;53.63;;
24663;SDS011;12791;50.992;13.788;2022-12-16T09:11:18;105.82;;;54.47;;
24663;SDS011;12791;50.992;13.788;2022-12-16T09:14:03;102.03;;;52.92;;
24663;SDS011;12791;50.992;13.788;2022-12-16T09:16:47;114.50;;;59.17;;
24663;SDS011;12791;50.992;13.788;2022-12-16T09:19:32;110.40;;;58.33;;
24663;SDS011;12791;50.992;13.788;2022-12-16T09:22:16;113.75;;;59.92;;
24663;SDS011;12791;50.992;13.788;2022-12-16T09:25:00;114.57;;;60.25;;
24663;SDS011;12791;50.992;13.788;2022-12-16T09:27:47;105.20;;;54.00;;
24663;SDS011;12791;50.992;13.788;2022-12-16T09:30:33;106.57;;;55.20;;
24663;SDS011;12791;50.992;13.788;2022-12-16T09:33:17;104.68;;;55.72;;
24663;SDS011;12791;50.992;13.788;2022-12-16T09:36:01;116.88;;;58.80;;
24663;SDS011;12791;50.992;13.788;2022-12-16T09:38:46;105.38;;;55.67;;
24663;SDS011;12791;50.992;13.788;2022-12-16T09:41:34;106.85;;;55.53;;
24663;SDS011;12791;50.992;13.788;2022-12-16T09:44:26;110.95;;;56.10;;
24663;SDS011;12791;50.992;13.788;2022-12-16T09:47:21;112.47;;;58.08;;
24663;SDS011;12791;50.992;13.788;2022-12-16T09:50:27;111.55;;;55.72;;
24663;SDS011;12791;50.992;13.788;2022-12-16T09:53:14;113.75;;;58.42;;
24663;SDS011;12791;50.992;13.788;2022-12-16T09:56:03;115.05;;;59.28;;
24663;SDS011;12791;50.992;13.788;2022-12-16T09:58:57;115.20;;;57.47;;
24663;SDS011;12791;50.992;13.788;2022-12-16T10:01:44;114.05;;;58.13;;
24663;SDS011;12791;50.992;13.788;2022-12-16T10:04:31;115.30;;;60.20;;
24663;SDS011;12791;50.992;13.788;2022-12-16T10:07:15;117.32;;;60.53;;
24663;SDS011;12791;50.992;13.788;2022-12-16T10:10:05;109.00;;;57.40;;
24663;SDS011;12791;50.992;13.788;2022-12-16T10:13:01;113.30;;;58.40;;
24663;SDS011;12791;50.992;13.788;2022-12-16T10:15:59;113.22;;;57.28;;
24663;SDS011;12791;50.992;13.788;2022-12-16T10:18:50;106.55;;;54.97;;
24663;SDS011;12791;50.992;13.788;2022-12-16T10:21:44;112.93;;;56.78;;
24663;SDS011;12791;50.992;13.788;2022-12-16T10:24:35;109.95;;;57.85;;
24663;SDS011;12791;50.992;13.788;2022-12-16T10:27:29;111.75;;;56.92;;
24663;SDS011;12791;50.992;13.788;2022-12-16T10:30:18;114.70;;;58.88;;
24663;SDS011;12791;50.992;13.788;2022-12-16T10:33:03;109.40;;;57.38;;
24663;SDS011;12791;50.992;13.788;2022-12-16T10:35:53;110.53;;;56.28;;
24663;SDS011;12791;50.992;13.788;2022-12-16T10:38:41;109.43;;;57.80;;
24663;SDS011;12791;50.992;13.788;2022-12-16T10:41:28;107.97;;;55.20;;
24663;SDS011;12791;50.992;13.788;2022-12-16T10:44:18;102.85;;;53.92;;
24663;SDS011;12791;50.992;13.788;2022-12-16T10:47:06;112.22;;;56.58;;
24663;SDS011;12791;50.992;13.788;2022-12-16T10:49:53;98.43;;;52.50;;
24663;SDS011;12791;50.992;13.788;2022-12-16T10:52:42;102.22;;;53.25;;
24663;SDS011;12791;50.992;13.788;2022-12-16T10:55:37;106.85;;;55.15;;
24663;SDS011;12791;50.992;13.788;2022-12-16T10:58:35;97.60;;;51.80;;
24663;SDS011;12791;50.992;13.788;2022-12-16T11:01:26;104.90;;;54.88;;
24663;SDS011;12791;50.992;13.788;2022-12-16T11:04:26;99.53;;;51.88;;
24663;SDS011;12791;50.992;13.788;2022-12-16T11:07:21;99.68;;;51.67;;
24663;SDS011;12791;50.992;13.788;2022-12-16T11:10:23;99.20;;;52.67;;
24663;SDS011;12791;50.992;13.788;2022-12-16T11:13:17;93.13;;;49.85;;
24663;SDS011;12791;50.992;13.788;2022-12-16T11:16:04;93.82;;;49.95;;
24663;SDS011;12791;50.992;13.788;2022-12-16T11:18:53;107.40;;;55.10;;
24663;SDS011;12791;50.992;13.788;2022-12-16T11:21:37;102.28;;;52.40;;
24663;SDS011;12791;50.992;13.788;2022-12-16T11:24:22;98.70;;;52.38;;
24663;SDS011;12791;50.992;13.788;2022-12-16T11:27:15;102.22;;;55.67;;
24663;SDS011;12791;50.992;13.788;2022-12-16T11:30:18;101.50;;;51.67;;
24663;SDS011;12791;50.992;13.788;2022-12-16T11:33:08;110.75;;;55.55;;
24663;SDS011;12791;50.992;13.788;2022-12-16T11:36:00;106.95;;;57.00;;
24663;SDS011;12791;50.992;13.788;2022-12-16T11:38:52;98.03;;;52.90;;
24663;SDS011;12791;50.992;13.788;2022-12-16T11:41:38;94.40;;;52.70;;
24663;SDS011;12791;50.992;13.788;2022-12-16T11:44:26;105.22;;;53.38;;
24663;SDS011;12791;50.992;13.788;2022-12-16T11:47:18;100.53;;;53.08;;
24663;SDS011;12791;50.992;13.788;2022-12-16T11:50:07;102.53;;;53.70;;
24663;SDS011;12791;50.992;13.788;2022-12-16T11:52:56;106.03;;;55.28;;
24663;SDS011;12791;50.992;13.788;2022-12-16T11:55:44;102.05;;;53.63;;
24663;SDS011;12791;50.992;13.788;2022-12-16T11:58:35;100.28;;;52.75;;
24663;SDS011;12791;50.992;13.788;2022-12-16T12:01:23;99.88;;;51.38;;
24663;SDS011;12791;50.992;13.788;2022-12-16T12:04:13;105.78;;;54.20;;
24663;SDS011;12791;50.992;13.788;2022-12-16T12:07:00;98.85;;;52.42;;
24663;SDS011;12791;50.992;13.788;2022-12-16T12:10:03;98.47;;;52.63;;
24663;SDS011;12791;50.992;13.788;2022-12-16T12:12:57;93.00;;;51.05;;
24663;SDS011;12791;50.992;13.788;2022-12-16T12:15:48;105.80;;;55.72;;
24663;SDS011;12791;50.992;13.788;2022-12-16T12:18:41;97.82;;;51.55;;
24663;SDS011;12791;50.992;13.788;2022-12-16T12:21:34;96.05;;;50.08;;
24663;SDS011;12791;50.992;13.788;2022-12-16T12:24:27;94.30;;;51.28;;
24663;SDS011;12791;50.992;13.788;2022-12-16T12:27:17;98.97;;;54.47;;
24663;SDS011;12791;50.992;13.788;2022-12-16T12:30:11;93.68;;;51.42;;
24663;SDS011;12791;50.992;13.788;2022-12-16T12:33:01;96.90;;;52.30;;
24663;SDS011;12791;50.992;13.788;2022-12-16T12:35:55;94.80;;;53.47;;
24663;SDS011;12791;50.992;13.788;2022-12-16T12:38:49;94.30;;;52.70;;
24663;SDS011;12791;50.992;13.788;2022-12-16T12:41:45;96.05;;;53.20;;
24663;SDS011;12791;50.992;13.788;2022-12-16T12:44:44;95.38;;;52.00;;
24663;SDS011;12791;50.992;13.788;2022-12-16T12:47:52;91.85;;;50.90;;
24663;SDS011;12791;50.992;13.788;2022-12-16T12:50:48;98.60;;;53.15;;
24663;SDS011;12791;50.992;13.788;2022-12-16T12:53:39;95.53;;;53.58;;
24663;SDS011;12791;50.992;13.788;2022-12-16T12:56:36;94.88;;;52.55;;
24663;SDS011;12791;50.992;13.788;2022-12-16T12:59:32;93.53;;;49.65;;
24663;SDS011;12791;50.992;13.788;2022-12-16T13:02:26;93.53;;;50.60;;
24663;SDS011;12791;50.992;13.788;2022-12-16T13:05:17;94.88;;;51.78;;
24663;SDS011;12791;50.992;13.788;2022-12-16T13:11:15;94.55;;;50.40;;
24663;SDS011;12791;50.992;13.788;2022-12-16T13:14:00;92.15;;;50.33;;
24663;SDS011;12791;50.992;13.788;2022-12-16T13:19:54;92.38;;;50.90;;
24663;SDS011;12791;50.992;13.788;2022-12-16T13:22:42;87.65;;;49.00;;
24663;SDS011;12791;50.992;13.788;2022-12-16T13:25:35;95.07;;;52.28;;
24663;SDS011;12791;50.992;13.788;2022-12-16T13:28:23;94.88;;;49.65;;
24663;SDS011;12791;50.992;13.788;2022-12-16T13:31:12;93.85;;;52.65;;
24663;SDS011;12791;50.992;13.788;2022-12-16T13:34:00;96.85;;;52.17;;
24663;SDS011;12791;50.992;13.788;2022-12-16T13:36:52;92.45;;;52.00;;
24663;SDS011;12791;50.992;13.788;2022-12-16T13:39:38;98.85;;;54.08;;
24663;SDS011;12791;50.992;13.788;2022-12-16T13:42:32;94.20;;;50.80;;
24663;SDS011;12791;50.992;13.788;2022-12-16T13:45:32;86.32;;;49.50;;
24663;SDS011;12791;50.992;13.788;2022-12-16T13:48:30;93.00;;;50.17;;
24663;SDS011;12791;50.992;13.788;2022-12-16T13:54:50;89.10;;;49.05;;
24663;SDS011;12791;50.992;13.788;2022-12-16T13:57:42;94.18;;;52.72;;
24663;SDS011;12791;50.992;13.788;2022-12-16T14:00:29;100.38;;;53.00;;
24663;SDS011;12791;50.992;13.788;2022-12-16T14:03:21;95.35;;;52.08;;
24663;SDS011;12791;50.992;13.788;2022-12-16T14:06:16;93.35;;;52.20;;
24663;SDS011;12791;50.992;13.788;2022-12-16T14:09:05;96.03;;;51.60;;
24663;SDS011;12791;50.992;13.788;2022-12-16T14:12:01;99.28;;;55.00;;
24663;SDS011;12791;50.992;13.788;2022-12-16T14:14:54;95.47;;;52.63;;
24663;SDS011;12791;50.992;13.788;2022-12-16T14:17:47;98.70;;;54.65;;
24663;SDS011;12791;50.992;13.788;2022-12-16T14:20:40;96.72;;;53.15;;
24663;SDS011;12791;50.992;13.788;2022-12-16T14:23:33;93.03;;;53.13;;
24663;SDS011;12791;50.992;13.788;2022-12-16T14:26:22;92.93;;;52.38;;
24663;SDS011;12791;50.992;13.788;2022-12-16T14:29:13;96.50;;;52.38;;
24663;SDS011;12791;50.992;13.788;2022-12-16T14:32:16;97.15;;;51.83;;
24663;SDS011;12791;50.992;13.788;2022-12-16T14:35:02;101.80;;;54.05;;
24663;SDS011;12791;50.992;13.788;2022-12-16T14:37:46;92.25;;;49.97;;
24663;SDS011;12791;50.992;13.788;2022-12-16T14:40:32;95.15;;;53.05;;
24663;SDS011;12791;50.992;13.788;2022-12-16T14:43:17;98.35;;;54.90;;
24663;SDS011;12791;50.992;13.788;2022-12-16T14:46:03;92.05;;;51.63;;
24663;SDS011;12791;50.992;13.788;2022-12-16T14:48:48;91.00;;;50.60;;
24663;SDS011;12791;50.992;13.788;2022-12-16T14:51:34;92.57;;;52.80;;
24663;SDS011;12791;50.992;13.788;2022-12-16T14:54:20;97.75;;;54.53;;
24663;SDS011;12791;50.992;13.788;2022-12-16T14:57:12;96.25;;;52.65;;
24663;SDS011;12791;50.992;13.788;2022-12-16T14:59:58;98.90;;;53.40;;
24663;SDS011;12791;50.992;13.788;2022-12-16T15:03:04;99.07;;;52.97;;
24663;SDS011;12791;50.992;13.788;2022-12-16T15:05:54;102.10;;;54.58;;
24663;SDS011;12791;50.992;13.788;2022-12-16T15:08:41;99.70;;;53.25;;
24663;SDS011;12791;50.992;13.788;2022-12-16T15:11:30;92.80;;;51.13;;
24663;SDS011;12791;50.992;13.788;2022-12-16T15:14:17;99.35;;;54.45;;
24663;SDS011;12791;50.992;13.788;2022-12-16T15:17:14;100.55;;;54.70;;
24663;SDS011;12791;50.992;13.788;2022-12-16T15:20:14;97.13;;;53.67;;
24663;SDS011;12791;50.992;13.788;2022-12-16T15:23:02;96.60;;;52.95;;
24663;SDS011;12791;50.992;13.788;2022-12-16T15:25:47;104.18;;;54.55;;
24663;SDS011;12791;50.992;13.788;2022-12-16T15:28:38;106.53;;;56.10;;
24663;SDS011;12791;50.992;13.788;2022-12-16T15:31:26;91.13;;;52.40;;
24663;SDS011;12791;50.992;13.788;2022-12-16T15:34:31;98.07;;;53.50;;
24663;SDS011;12791;50.992;13.788;2022-12-16T15:37:20;101.35;;;53.97;;
24663;SDS011;12791;50.992;13.788;2022-12-16T15:40:20;98.90;;;54.85;;
24663;SDS011;12791;50.992;13.788;2022-12-16T15:43:21;102.30;;;55.80;;
24663;SDS011;12791;50.992;13.788;2022-12-16T15:46:14;95.55;;;54.13;;
24663;SDS011;12791;50.992;13.788;2022-12-16T15:49:01;97.00;;;54.78;;
24663;SDS011;12791;50.992;13.788;2022-12-16T15:51:47;94.47;;;54.38;;
24663;SDS011;12791;50.992;13.788;2022-12-16T15:54:32;103.03;;;56.42;;
24663;SDS011;12791;50.992;13.788;2022-12-16T15:57:31;101.40;;;56.33;;
24663;SDS011;12791;50.992;13.788;2022-12-16T16:00:18;107.90;;;56.70;;
24663;SDS011;12791;50.992;13.788;2022-12-16T16:03:14;104.22;;;58.35;;
24663;SDS011;12791;50.992;13.788;2022-12-16T16:06:03;102.82;;;54.45;;
24663;SDS011;12791;50.992;13.788;2022-12-16T16:08:50;97.95;;;55.08;;
24663;SDS011;12791;50.992;13.788;2022-12-16T16:11:35;101.95;;;55.20;;
24663;SDS011;12791;50.992;13.788;2022-12-16T16:14:19;108.80;;;58.60;;
24663;SDS011;12791;50.992;13.788;2022-12-16T16:17:07;108.47;;;57.83;;
24663;SDS011;12791;50.992;13.788;2022-12-16T16:20:02;105.00;;;55.88;;
24663;SDS011;12791;50.992;13.788;2022-12-16T16:22:49;103.32;;;58.25;;
24663;SDS011;12791;50.992;13.788;2022-12-16T16:25:29;107.17;;;56.23;;
24663;SDS011;12791;50.992;13.788;2022-12-16T16:28:14;100.70;;;56.35;;
24663;SDS011;12791;50.992;13.788;2022-12-16T16:30:58;102.25;;;56.47;;
24663;SDS011;12791;50.992;13.788;2022-12-16T16:33:42;102.25;;;56.75;;
24663;SDS011;12791;50.992;13.788;2022-12-16T16:36:26;103.00;;;56.90;;
24663;SDS011;12791;50.992;13.788;2022-12-16T16:39:12;102.47;;;54.10;;
24663;SDS011;12791;50.992;13.788;2022-12-16T16:41:56;91.38;;;51.90;;
24663;SDS011;12791;50.992;13.788;2022-12-16T16:44:41;98.82;;;53.90;;
24663;SDS011;12791;50.992;13.788;2022-12-16T16:47:27;97.63;;;55.00;;
24663;SDS011;12791;50.992;13.788;2022-12-16T16:50:12;100.25;;;52.60;;
24663;SDS011;12791;50.992;13.788;2022-12-16T16:52:57;92.32;;;50.63;;
24663;SDS011;12791;50.992;13.788;2022-12-16T16:55:43;99.35;;;54.28;;
24663;SDS011;12791;50.992;13.788;2022-12-16T16:58:28;89.82;;;49.70;;
24663;SDS011;12791;50.992;13.788;2022-12-16T17:01:15;99.82;;;53.90;;
24663;SDS011;12791;50.992;13.788;2022-12-16T17:04:00;91.15;;;51.78;;
24663;SDS011;12791;50.992;13.788;2022-12-16T17:06:45;92.78;;;52.25;;
24663;SDS011;12791;50.992;13.788;2022-12-16T17:09:29;96.70;;;51.88;;
24663;SDS011;12791;50.992;13.788;2022-12-16T17:12:18;100.32;;;53.22;;
24663;SDS011;12791;50.992;13.788;2022-12-16T17:15:11;99.60;;;55.88;;
24663;SDS011;12791;50.992;13.788;2022-12-16T17:17:58;96.40;;;52.08;;
24663;SDS011;12791;50.992;13.788;2022-12-16T17:20:42;94.20;;;52.35;;
24663;SDS011;12791;50.992;13.788;2022-12-16T17:23:26;91.45;;;50.30;;
24663;SDS011;12791;50.992;13.788;2022-12-16T17:26:10;94.45;;;52.28;;
24663;SDS011;12791;50.992;13.788;2022-12-16T17:28:56;101.85;;;53.65;;
24663;SDS011;12791;50.992;13.788;2022-12-16T17:31:40;93.20;;;52.72;;
24663;SDS011;12791;50.992;13.788;2022-12-16T17:34:24;96.68;;;53.58;;
24663;SDS011;12791;50.992;13.788;2022-12-16T17:37:08;100.57;;;53.53;;
24663;SDS011;12791;50.992;13.788;2022-12-16T17:39:53;92.47;;;51.55;;
24663;SDS011;12791;50.992;13.788;2022-12-16T17:42:37;90.93;;;51.05;;
24663;SDS011;12791;50.992;13.788;2022-12-16T17:45:22;90.70;;;52.17;;
24663;SDS011;12791;50.992;13.788;2022-12-16T17:48:07;93.82;;;51.08;;
24663;SDS011;12791;50.992;13.788;2022-12-16T17:50:51;90.68;;;51.28;;
24663;SDS011;12791;50.992;13.788;2022-12-16T17:53:35;87.00;;;48.42;;
24663;SDS011;12791;50.992;13.788;2022-12-16T17:56:19;89.38;;;49.47;;
24663;SDS011;12791;50.992;13.788;2022-12-16T17:59:03;94.75;;;53.65;;
24663;SDS011;12791;50.992;13.788;2022-12-16T18:01:49;90.53;;;49.60;;
24663;SDS011;12791;50.992;13.788;2022-12-16T18:04:33;95.20;;;52.28;;
24663;SDS011;12791;50.992;13.788;2022-12-16T18:07:17;101.45;;;54.60;;
24663;SDS011;12791;50.992;13.788;2022-12-16T18:10:01;95.25;;;52.45;;
24663;SDS011;12791;50.992;13.788;2022-12-16T18:12:46;100.65;;;54.72;;
24663;SDS011;12791;50.992;13.788;2022-12-16T18:15:30;99.78;;;56.38;;
24663;SDS011;12791;50.992;13.788;2022-12-16T18:18:16;101.03;;;55.75;;
24663;SDS011;12791;50.992;13.788;2022-12-16T18:21:07;98.80;;;53.50;;
24663;SDS011;12791;50.992;13.788;2022-12-16T18:23:52;97.03;;;54.53;;
24663;SDS011;12791;50.992;13.788;2022-12-16T18:26:36;96.13;;;55.03;;
24663;SDS011;12791;50.992;13.788;2022-12-16T18:29:20;104.28;;;56.70;;
24663;SDS011;12791;50.992;13.788;2022-12-16T18:32:04;95.93;;;53.80;;
24663;SDS011;12791;50.992;13.788;2022-12-16T18:34:50;103.70;;;57.65;;
24663;SDS011;12791;50.992;13.788;2022-12-16T18:37:34;100.35;;;55.88;;
24663;SDS011;12791;50.992;13.788;2022-12-16T18:40:18;101.45;;;56.15;;
24663;SDS011;12791;50.992;13.788;2022-12-16T18:43:17;96.95;;;53.10;;
24663;SDS011;12791;50.992;13.788;2022-12-16T18:46:01;100.35;;;54.15;;
24663;SDS011;12791;50.992;13.788;2022-12-16T18:48:45;103.07;;;55.75;;
24663;SDS011;12791;50.992;13.788;2022-12-16T18:51:31;93.88;;;52.33;;
24663;SDS011;12791;50.992;13.788;2022-12-16T18:54:16;96.85;;;55.20;;
24663;SDS011;12791;50.992;13.788;2022-12-16T18:57:00;96.90;;;55.03;;
24663;SDS011;12791;50.992;13.788;2022-12-16T18:59:44;99.63;;;56.58;;
24663;SDS011;12791;50.992;13.788;2022-12-16T19:02:37;97.25;;;53.75;;
24663;SDS011;12791;50.992;13.788;2022-12-16T19:05:21;96.88;;;53.72;;
24663;SDS011;12791;50.992;13.788;2022-12-16T19:08:07;98.72;;;54.47;;
24663;SDS011;12791;50.992;13.788;2022-12-16T19:10:54;104.85;;;55.45;;
24663;SDS011;12791;50.992;13.788;2022-12-16T19:13:39;100.40;;;57.03;;
24663;SDS011;12791;50.992;13.788;2022-12-16T19:16:23;98.03;;;55.47;;
24663;SDS011;12791;50.992;13.788;2022-12-16T19:19:07;97.60;;;56.03;;
24663;SDS011;12791;50.992;13.788;2022-12-16T19:21:51;98.68;;;55.80;;
24663;SDS011;12791;50.992;13.788;2022-12-16T19:24:45;96.40;;;55.28;;
24663;SDS011;12791;50.992;13.788;2022-12-16T19:27:30;96.50;;;56.03;;
24663;SDS011;12791;50.992;13.788;2022-12-16T19:30:16;99.95;;;58.97;;
24663;SDS011;12791;50.992;13.788;2022-12-16T19:33:00;105.15;;;57.33;;
24663;SDS011;12791;50.992;13.788;2022-12-16T19:35:44;100.70;;;56.25;;
24663;SDS011;12791;50.992;13.788;2022-12-16T19:38:28;101.65;;;55.67;;
24663;SDS011;12791;50.992;13.788;2022-12-16T19:41:14;108.47;;;60.47;;
24663;SDS011;12791;50.992;13.788;2022-12-16T19:44:00;102.55;;;55.92;;
24663;SDS011;12791;50.992;13.788;2022-12-16T19:46:44;106.10;;;58.28;;
24663;SDS011;12791;50.992;13.788;2022-12-16T19:49:28;96.30;;;54.47;;
24663;SDS011;12791;50.992;13.788;2022-12-16T19:52:12;99.50;;;57.42;;
24663;SDS011;12791;50.992;13.788;2022-12-16T19:54:56;107.60;;;58.50;;
24663;SDS011;12791;50.992;13.788;2022-12-16T19:57:42;105.30;;;59.30;;
24663;SDS011;12791;50.992;13.788;2022-12-16T20:00:26;99.40;;;56.05;;
24663;SDS011;12791;50.992;13.788;2022-12-16T20:03:10;105.40;;;57.17;;
24663;SDS011;12791;50.992;13.788;2022-12-16T20:05:58;99.40;;;56.50;;
24663;SDS011;12791;50.992;13.788;2022-12-16T20:08:42;107.20;;;57.72;;
24663;SDS011;12791;50.992;13.788;2022-12-16T20:11:26;104.47;;;58.13;;